sensor_id;sensor_type;location;lat;lon;timestamp;temperature;humidity
29731;DHT22;16639;51.488;0.152;2023-11-21T00:01:37;11.30;99.90
29731;DHT22;16639;51.488;0.152;2023-11-21T00:04:05;11.30;99.90
29731;DHT22;16639;51.488;0.152;2023-11-21T00:06:34;11.30;99.90
29731;DHT22;16639;51.488;0.152;2023-11-21T00:09:02;11.30;99.90
29731;DHT22;16639;51.488;0.152;2023-11-21T00:11:32;11.10;99.90
29731;DHT22;16639;51.488;0.152;2023-11-21T00:14:00;11.30;99.90
29731;DHT22;16639;51.488;0.152;2023-11-21T00:16:27;11.30;99.90
29731;DHT22;16639;51.488;0.152;2023-11-21T00:18:54;11.30;99.90
29731;DHT22;16639;51.488;0.152;2023-11-21T00:21:22;10.80;99.90
29731;DHT22;16639;51.488;0.152;2023-11-21T00:23:49;11.30;99.90
29731;DHT22;16639;51.488;0.152;2023-11-21T00:26:17;11.30;99.90
29731;DHT22;16639;51.488;0.152;2023-11-21T00:28:44;11.30;99.90
29731;DHT22;16639;51.488;0.152;2023-11-21T00:31:12;11.30;99.90
29731;DHT22;16639;51.488;0.152;2023-11-21T00:33:40;11.20;99.90
29731;DHT22;16639;51.488;0.152;2023-11-21T00:36:08;11.20;99.90
29731;DHT22;16639;51.488;0.152;2023-11-21T00:38:36;11.30;99.90
29731;DHT22;16639;51.488;0.152;2023-11-21T00:41:07;11.30;99.90
29731;DHT22;16639;51.488;0.152;2023-11-21T00:43:34;11.30;99.90
29731;DHT22;16639;51.488;0.152;2023-11-21T00:46:05;11.30;99.90
29731;DHT22;16639;51.488;0.152;2023-11-21T00:48:36;11.30;99.90
29731;DHT22;16639;51.488;0.152;2023-11-21T00:51:04;11.20;99.90
29731;DHT22;16639;51.488;0.152;2023-11-21T00:53:33;11.30;99.90
29731;DHT22;16639;51.488;0.152;2023-11-21T00:56:00;11.30;99.90
29731;DHT22;16639;51.488;0.152;2023-11-21T00:58:28;11.30;99.90
29731;DHT22;16639;51.488;0.152;2023-11-21T01:00:55;11.30;99.90
29731;DHT22;16639;51.488;0.152;2023-11-21T01:03:24;11.30;99.90
29731;DHT22;16639;51.488;0.152;2023-11-21T01:05:51;11.30;99.90
29731;DHT22;16639;51.488;0.152;2023-11-21T01:08:19;11.30;99.90
29731;DHT22;16639;51.488;0.152;2023-11-21T01:10:47;11.30;99.90
29731;DHT22;16639;51.488;0.152;2023-11-21T01:13:14;11.30;99.90
29731;DHT22;16639;51.488;0.152;2023-11-21T01:15:42;11.30;99.90
29731;DHT22;16639;51.488;0.152;2023-11-21T01:18:10;11.30;99.90
29731;DHT22;16639;51.488;0.152;2023-11-21T01:20:37;11.30;99.90
29731;DHT22;16639;51.488;0.152;2023-11-21T01:23:05;10.00;99.90
29731;DHT22;16639;51.488;0.152;2023-11-21T01:25:32;11.30;99.90
29731;DHT22;16639;51.488;0.152;2023-11-21T01:27:59;11.30;99.90
29731;DHT22;16639;51.488;0.152;2023-11-21T01:30:27;11.20;99.90
29731;DHT22;16639;51.488;0.152;2023-11-21T01:32:54;11.30;99.90
29731;DHT22;16639;51.488;0.152;2023-11-21T01:35:22;11.30;99.90
29731;DHT22;16639;51.488;0.152;2023-11-21T01:37:49;11.30;99.90
29731;DHT22;16639;51.488;0.152;2023-11-21T01:40:16;11.30;99.90
29731;DHT22;16639;51.488;0.152;2023-11-21T01:42:45;11.30;99.90
29731;DHT22;16639;51.488;0.152;2023-11-21T01:45:15;11.30;99.90
29731;DHT22;16639;51.488;0.152;2023-11-21T01:47:44;11.30;99.90
29731;DHT22;16639;51.488;0.152;2023-11-21T01:50:15;11.30;99.90
29731;DHT22;16639;51.488;0.152;2023-11-21T01:52:46;11.30;99.90
29731;DHT22;16639;51.488;0.152;2023-11-21T01:55:17;11.30;99.90
29731;DHT22;16639;51.488;0.152;2023-11-21T01:57:50;11.30;99.90
29731;DHT22;16639;51.488;0.152;2023-11-21T02:00:18;11.30;99.90
29731;DHT22;16639;51.488;0.152;2023-11-21T02:02:47;11.40;99.90
29731;DHT22;16639;51.488;0.152;2023-11-21T02:05:18;11.30;99.90
29731;DHT22;16639;51.488;0.152;2023-11-21T02:07:46;11.40;99.90
29731;DHT22;16639;51.488;0.152;2023-11-21T02:10:16;11.40;99.90
29731;DHT22;16639;51.488;0.152;2023-11-21T02:12:44;11.40;99.90
29731;DHT22;16639;51.488;0.152;2023-11-21T02:15:13;11.40;99.90
29731;DHT22;16639;51.488;0.152;2023-11-21T02:17:54;11.30;99.90
29731;DHT22;16639;51.488;0.152;2023-11-21T02:20:23;11.40;99.90
29731;DHT22;16639;51.488;0.152;2023-11-21T02:22:53;11.40;99.90
29731;DHT22;16639;51.488;0.152;2023-11-21T02:25:34;11.40;99.90
29731;DHT22;16639;51.488;0.152;2023-11-21T02:28:03;10.60;99.90
29731;DHT22;16639;51.488;0.152;2023-11-21T02:30:30;10.90;99.90
29731;DHT22;16639;51.488;0.152;2023-11-21T02:33:01;11.40;99.90
29731;DHT22;16639;51.488;0.152;2023-11-21T02:35:29;11.40;99.90
29731;DHT22;16639;51.488;0.152;2023-11-21T02:37:59;11.40;99.90
29731;DHT22;16639;51.488;0.152;2023-11-21T02:40:27;11.40;99.90
29731;DHT22;16639;51.488;0.152;2023-11-21T02:42:54;11.40;99.90
29731;DHT22;16639;51.488;0.152;2023-11-21T02:45:22;11.40;99.90
29731;DHT22;16639;51.488;0.152;2023-11-21T02:47:51;11.40;99.90
29731;DHT22;16639;51.488;0.152;2023-11-21T02:50:21;11.40;99.90
29731;DHT22;16639;51.488;0.152;2023-11-21T02:52:50;11.40;99.90
29731;DHT22;16639;51.488;0.152;2023-11-21T02:55:18;11.40;99.90
29731;DHT22;16639;51.488;0.152;2023-11-21T02:57:46;11.40;99.90
29731;DHT22;16639;51.488;0.152;2023-11-21T03:00:13;11.40;99.90
29731;DHT22;16639;51.488;0.152;2023-11-21T03:02:42;11.40;99.90
29731;DHT22;16639;51.488;0.152;2023-11-21T03:05:11;11.40;99.90
29731;DHT22;16639;51.488;0.152;2023-11-21T03:07:39;11.40;99.90
29731;DHT22;16639;51.488;0.152;2023-11-21T03:10:08;11.40;99.90
29731;DHT22;16639;51.488;0.152;2023-11-21T03:12:37;11.40;99.90
29731;DHT22;16639;51.488;0.152;2023-11-21T03:15:06;11.40;99.90
29731;DHT22;16639;51.488;0.152;2023-11-21T03:17:34;11.40;99.90
29731;DHT22;16639;51.488;0.152;2023-11-21T03:20:01;11.40;99.90
29731;DHT22;16639;51.488;0.152;2023-11-21T03:22:32;11.40;99.90
29731;DHT22;16639;51.488;0.152;2023-11-21T03:25:00;11.40;99.90
29731;DHT22;16639;51.488;0.152;2023-11-21T03:27:28;11.40;99.90
29731;DHT22;16639;51.488;0.152;2023-11-21T03:29:55;11.40;99.90
29731;DHT22;16639;51.488;0.152;2023-11-21T03:32:23;11.40;99.90
29731;DHT22;16639;51.488;0.152;2023-11-21T03:34:55;11.50;99.90
29731;DHT22;16639;51.488;0.152;2023-11-21T03:37:24;11.40;99.90
29731;DHT22;16639;51.488;0.152;2023-11-21T03:39:52;11.40;99.90
29731;DHT22;16639;51.488;0.152;2023-11-21T03:42:19;11.40;99.90
29731;DHT22;16639;51.488;0.152;2023-11-21T03:44:47;11.40;99.90
29731;DHT22;16639;51.488;0.152;2023-11-21T03:47:14;11.40;99.90
29731;DHT22;16639;51.488;0.152;2023-11-21T03:49:41;11.40;99.90
29731;DHT22;16639;51.488;0.152;2023-11-21T03:52:09;11.30;99.90
29731;DHT22;16639;51.488;0.152;2023-11-21T03:54:37;11.30;99.90
29731;DHT22;16639;51.488;0.152;2023-11-21T03:57:04;11.30;99.90
29731;DHT22;16639;51.488;0.152;2023-11-21T03:59:32;11.30;99.90
29731;DHT22;16639;51.488;0.152;2023-11-21T04:01:59;11.30;99.90
29731;DHT22;16639;51.488;0.152;2023-11-21T04:04:27;11.30;99.90
29731;DHT22;16639;51.488;0.152;2023-11-21T04:06:54;11.30;99.90
29731;DHT22;16639;51.488;0.152;2023-11-21T04:09:22;10.40;99.90
29731;DHT22;16639;51.488;0.152;2023-11-21T04:11:52;12.80;99.90
29731;DHT22;16639;51.488;0.152;2023-11-21T04:14:20;11.30;99.90
29731;DHT22;16639;51.488;0.152;2023-11-21T04:16:47;11.30;99.90
29731;DHT22;16639;51.488;0.152;2023-11-21T04:19:15;11.20;99.90
29731;DHT22;16639;51.488;0.152;2023-11-21T04:21:44;11.20;99.90
29731;DHT22;16639;51.488;0.152;2023-11-21T04:24:12;11.20;99.90
29731;DHT22;16639;51.488;0.152;2023-11-21T04:26:39;11.20;99.90
29731;DHT22;16639;51.488;0.152;2023-11-21T04:29:06;11.30;99.90
29731;DHT22;16639;51.488;0.152;2023-11-21T04:31:34;11.20;99.90
29731;DHT22;16639;51.488;0.152;2023-11-21T04:34:01;11.30;99.90
29731;DHT22;16639;51.488;0.152;2023-11-21T04:36:31;11.20;99.90
29731;DHT22;16639;51.488;0.152;2023-11-21T04:38:58;11.20;99.90
29731;DHT22;16639;51.488;0.152;2023-11-21T04:41:26;11.20;99.90
29731;DHT22;16639;51.488;0.152;2023-11-21T04:43:55;11.20;99.90
29731;DHT22;16639;51.488;0.152;2023-11-21T04:46:22;11.20;99.90
29731;DHT22;16639;51.488;0.152;2023-11-21T04:48:50;11.10;99.90
29731;DHT22;16639;51.488;0.152;2023-11-21T04:51:17;11.10;99.90
29731;DHT22;16639;51.488;0.152;2023-11-21T04:53:45;11.10;99.90
29731;DHT22;16639;51.488;0.152;2023-11-21T04:56:12;11.10;99.90
29731;DHT22;16639;51.488;0.152;2023-11-21T04:58:39;11.20;99.90
29731;DHT22;16639;51.488;0.152;2023-11-21T05:01:07;12.40;99.90
29731;DHT22;16639;51.488;0.152;2023-11-21T05:03:36;11.10;99.90
29731;DHT22;16639;51.488;0.152;2023-11-21T05:06:06;11.10;99.90
29731;DHT22;16639;51.488;0.152;2023-11-21T05:08:33;11.10;99.90
29731;DHT22;16639;51.488;0.152;2023-11-21T05:11:01;11.10;99.90
29731;DHT22;16639;51.488;0.152;2023-11-21T05:13:28;10.70;99.90
29731;DHT22;16639;51.488;0.152;2023-11-21T05:15:57;11.00;99.90
29731;DHT22;16639;51.488;0.152;2023-11-21T05:18:24;11.30;99.90
29731;DHT22;16639;51.488;0.152;2023-11-21T05:20:57;11.00;99.90
29731;DHT22;16639;51.488;0.152;2023-11-21T05:23:25;11.00;99.90
29731;DHT22;16639;51.488;0.152;2023-11-21T05:25:52;11.00;99.90
29731;DHT22;16639;51.488;0.152;2023-11-21T05:28:20;11.00;99.90
29731;DHT22;16639;51.488;0.152;2023-11-21T05:30:47;11.00;99.90
29731;DHT22;16639;51.488;0.152;2023-11-21T05:33:16;10.90;99.90
29731;DHT22;16639;51.488;0.152;2023-11-21T05:35:44;10.90;99.90
29731;DHT22;16639;51.488;0.152;2023-11-21T05:38:12;10.90;99.90
29731;DHT22;16639;51.488;0.152;2023-11-21T05:40:39;10.90;99.90
29731;DHT22;16639;51.488;0.152;2023-11-21T05:43:07;10.80;99.90
29731;DHT22;16639;51.488;0.152;2023-11-21T05:45:34;10.80;99.90
29731;DHT22;16639;51.488;0.152;2023-11-21T05:48:02;10.80;99.90
29731;DHT22;16639;51.488;0.152;2023-11-21T05:50:30;10.80;99.90
29731;DHT22;16639;51.488;0.152;2023-11-21T05:52:58;10.80;99.90
29731;DHT22;16639;51.488;0.152;2023-11-21T05:55:28;10.80;99.90
29731;DHT22;16639;51.488;0.152;2023-11-21T05:57:55;10.70;99.90
29731;DHT22;16639;51.488;0.152;2023-11-21T06:00:22;10.40;99.90
29731;DHT22;16639;51.488;0.152;2023-11-21T06:02:53;10.70;99.90
29731;DHT22;16639;51.488;0.152;2023-11-21T06:05:24;10.70;99.90
29731;DHT22;16639;51.488;0.152;2023-11-21T06:07:53;10.70;99.90
29731;DHT22;16639;51.488;0.152;2023-11-21T06:10:22;10.70;99.90
29731;DHT22;16639;51.488;0.152;2023-11-21T06:12:52;10.70;99.90
29731;DHT22;16639;51.488;0.152;2023-11-21T06:15:20;10.60;99.90
29731;DHT22;16639;51.488;0.152;2023-11-21T06:17:49;10.60;99.90
29731;DHT22;16639;51.488;0.152;2023-11-21T06:20:21;10.60;99.90
29731;DHT22;16639;51.488;0.152;2023-11-21T06:22:51;10.60;99.90
29731;DHT22;16639;51.488;0.152;2023-11-21T06:25:18;10.70;99.90
29731;DHT22;16639;51.488;0.152;2023-11-21T06:27:47;10.70;99.90
29731;DHT22;16639;51.488;0.152;2023-11-21T06:30:16;10.70;99.90
29731;DHT22;16639;51.488;0.152;2023-11-21T06:32:44;10.60;99.90
29731;DHT22;16639;51.488;0.152;2023-11-21T06:35:15;10.70;99.90
29731;DHT22;16639;51.488;0.152;2023-11-21T06:37:44;10.70;99.90
29731;DHT22;16639;51.488;0.152;2023-11-21T06:40:18;10.70;99.90
29731;DHT22;16639;51.488;0.152;2023-11-21T06:42:46;10.60;99.90
29731;DHT22;16639;51.488;0.152;2023-11-21T06:45:15;10.60;99.90
29731;DHT22;16639;51.488;0.152;2023-11-21T06:47:43;10.60;99.90
29731;DHT22;16639;51.488;0.152;2023-11-21T06:50:11;10.60;99.90
29731;DHT22;16639;51.488;0.152;2023-11-21T06:52:39;10.60;99.90
29731;DHT22;16639;51.488;0.152;2023-11-21T06:55:07;10.60;99.90
29731;DHT22;16639;51.488;0.152;2023-11-21T06:57:38;10.60;99.90
29731;DHT22;16639;51.488;0.152;2023-11-21T07:00:06;10.50;99.90
29731;DHT22;16639;51.488;0.152;2023-11-21T07:02:36;10.50;99.90
29731;DHT22;16639;51.488;0.152;2023-11-21T07:05:04;10.50;99.90
29731;DHT22;16639;51.488;0.152;2023-11-21T07:07:35;10.50;99.90
29731;DHT22;16639;51.488;0.152;2023-11-21T07:10:04;10.50;99.90
29731;DHT22;16639;51.488;0.152;2023-11-21T07:12:33;10.50;99.90
29731;DHT22;16639;51.488;0.152;2023-11-21T07:15:01;10.50;99.90
29731;DHT22;16639;51.488;0.152;2023-11-21T07:17:30;10.50;99.90
29731;DHT22;16639;51.488;0.152;2023-11-21T07:19:58;10.50;99.90
29731;DHT22;16639;51.488;0.152;2023-11-21T07:22:26;10.60;99.90
29731;DHT22;16639;51.488;0.152;2023-11-21T07:24:53;10.50;99.90
29731;DHT22;16639;51.488;0.152;2023-11-21T07:27:22;10.60;99.90
29731;DHT22;16639;51.488;0.152;2023-11-21T07:29:49;10.50;99.90
29731;DHT22;16639;51.488;0.152;2023-11-21T07:32:17;10.50;99.90
29731;DHT22;16639;51.488;0.152;2023-11-21T07:34:44;10.40;99.90
29731;DHT22;16639;51.488;0.152;2023-11-21T07:37:11;10.40;99.90
29731;DHT22;16639;51.488;0.152;2023-11-21T07:39:39;10.40;99.90
29731;DHT22;16639;51.488;0.152;2023-11-21T07:42:09;10.40;99.90
29731;DHT22;16639;51.488;0.152;2023-11-21T07:44:38;10.40;99.90
29731;DHT22;16639;51.488;0.152;2023-11-21T07:47:05;10.40;99.90
29731;DHT22;16639;51.488;0.152;2023-11-21T07:49:33;11.00;99.90
29731;DHT22;16639;51.488;0.152;2023-11-21T07:52:00;10.30;99.90
29731;DHT22;16639;51.488;0.152;2023-11-21T07:54:28;10.30;99.90
29731;DHT22;16639;51.488;0.152;2023-11-21T07:56:55;10.30;99.90
29731;DHT22;16639;51.488;0.152;2023-11-21T07:59:23;10.30;99.90
29731;DHT22;16639;51.488;0.152;2023-11-21T08:01:50;10.30;99.90
29731;DHT22;16639;51.488;0.152;2023-11-21T08:04:18;10.30;99.90
29731;DHT22;16639;51.488;0.152;2023-11-21T08:06:46;10.20;99.90
29731;DHT22;16639;51.488;0.152;2023-11-21T08:09:14;10.20;99.90
29731;DHT22;16639;51.488;0.152;2023-11-21T08:11:43;10.40;99.90
29731;DHT22;16639;51.488;0.152;2023-11-21T08:14:10;10.20;99.90
29731;DHT22;16639;51.488;0.152;2023-11-21T08:16:38;10.20;99.90
29731;DHT22;16639;51.488;0.152;2023-11-21T08:19:06;10.20;99.90
29731;DHT22;16639;51.488;0.152;2023-11-21T08:21:34;10.80;99.90
29731;DHT22;16639;51.488;0.152;2023-11-21T08:24:01;10.10;99.90
29731;DHT22;16639;51.488;0.152;2023-11-21T08:26:33;10.20;99.90
29731;DHT22;16639;51.488;0.152;2023-11-21T08:29:02;10.20;99.90
29731;DHT22;16639;51.488;0.152;2023-11-21T08:31:30;10.20;99.90
29731;DHT22;16639;51.488;0.152;2023-11-21T08:33:57;10.30;99.90
29731;DHT22;16639;51.488;0.152;2023-11-21T08:36:25;10.20;99.90
29731;DHT22;16639;51.488;0.152;2023-11-21T08:38:53;10.20;99.90
29731;DHT22;16639;51.488;0.152;2023-11-21T08:41:20;10.20;99.90
29731;DHT22;16639;51.488;0.152;2023-11-21T08:43:51;10.20;99.90
29731;DHT22;16639;51.488;0.152;2023-11-21T08:46:19;10.20;99.90
29731;DHT22;16639;51.488;0.152;2023-11-21T08:48:47;10.20;99.90
29731;DHT22;16639;51.488;0.152;2023-11-21T08:51:15;10.20;99.90
29731;DHT22;16639;51.488;0.152;2023-11-21T08:53:43;10.20;99.90
29731;DHT22;16639;51.488;0.152;2023-11-21T08:56:14;10.30;99.90
29731;DHT22;16639;51.488;0.152;2023-11-21T08:58:48;10.30;99.90
29731;DHT22;16639;51.488;0.152;2023-11-21T09:01:18;10.30;99.90
29731;DHT22;16639;51.488;0.152;2023-11-21T09:04:24;10.30;99.90
29731;DHT22;16639;51.488;0.152;2023-11-21T09:06:56;10.30;99.90
29731;DHT22;16639;51.488;0.152;2023-11-21T09:09:25;10.30;99.90
29731;DHT22;16639;51.488;0.152;2023-11-21T09:11:52;10.30;99.90
29731;DHT22;16639;51.488;0.152;2023-11-21T09:14:20;10.30;99.90
29731;DHT22;16639;51.488;0.152;2023-11-21T09:16:47;10.30;99.90
29731;DHT22;16639;51.488;0.152;2023-11-21T09:19:14;10.30;99.90
29731;DHT22;16639;51.488;0.152;2023-11-21T09:21:44;10.30;99.90
29731;DHT22;16639;51.488;0.152;2023-11-21T09:24:12;10.30;99.90
29731;DHT22;16639;51.488;0.152;2023-11-21T09:26:39;10.30;99.90
29731;DHT22;16639;51.488;0.152;2023-11-21T09:29:08;10.30;99.90
29731;DHT22;16639;51.488;0.152;2023-11-21T09:31:36;10.30;99.90
29731;DHT22;16639;51.488;0.152;2023-11-21T09:46:48;10.30;99.90
29731;DHT22;16639;51.488;0.152;2023-11-21T09:57:15;10.40;99.90
29731;DHT22;16639;51.488;0.152;2023-11-21T09:59:43;10.50;99.90
29731;DHT22;16639;51.488;0.152;2023-11-21T10:02:12;10.50;99.90
29731;DHT22;16639;51.488;0.152;2023-11-21T10:04:41;10.50;99.90
29731;DHT22;16639;51.488;0.152;2023-11-21T10:07:12;10.50;99.90
29731;DHT22;16639;51.488;0.152;2023-11-21T10:09:42;10.50;99.90
29731;DHT22;16639;51.488;0.152;2023-11-21T10:12:11;9.60;99.90
29731;DHT22;16639;51.488;0.152;2023-11-21T10:14:43;10.60;99.90
29731;DHT22;16639;51.488;0.152;2023-11-21T10:17:14;11.10;99.90
29731;DHT22;16639;51.488;0.152;2023-11-21T10:19:53;10.60;99.90
29731;DHT22;16639;51.488;0.152;2023-11-21T10:22:22;11.10;99.90
29731;DHT22;16639;51.488;0.152;2023-11-21T10:24:51;10.70;99.90
29731;DHT22;16639;51.488;0.152;2023-11-21T10:27:20;10.70;99.90
29731;DHT22;16639;51.488;0.152;2023-11-21T10:29:50;10.80;99.90
29731;DHT22;16639;51.488;0.152;2023-11-21T10:32:18;10.70;99.90
29731;DHT22;16639;51.488;0.152;2023-11-21T10:34:56;11.00;99.90
29731;DHT22;16639;51.488;0.152;2023-11-21T10:37:38;10.80;99.90
29731;DHT22;16639;51.488;0.152;2023-11-21T10:40:10;10.80;99.90
29731;DHT22;16639;51.488;0.152;2023-11-21T10:42:41;10.80;99.90
29731;DHT22;16639;51.488;0.152;2023-11-21T10:45:09;10.80;99.90
29731;DHT22;16639;51.488;0.152;2023-11-21T10:47:43;10.90;99.90
29731;DHT22;16639;51.488;0.152;2023-11-21T10:50:11;10.90;99.90
29731;DHT22;16639;51.488;0.152;2023-11-21T10:52:42;10.90;99.90
29731;DHT22;16639;51.488;0.152;2023-11-21T10:55:19;11.00;99.90
29731;DHT22;16639;51.488;0.152;2023-11-21T10:57:50;11.00;99.90
29731;DHT22;16639;51.488;0.152;2023-11-21T11:00:18;11.10;99.90
29731;DHT22;16639;51.488;0.152;2023-11-21T11:02:54;11.10;99.90
29731;DHT22;16639;51.488;0.152;2023-11-21T11:05:23;11.10;99.90
29731;DHT22;16639;51.488;0.152;2023-11-21T11:08:12;11.10;99.90
29731;DHT22;16639;51.488;0.152;2023-11-21T11:10:40;11.10;99.90
29731;DHT22;16639;51.488;0.152;2023-11-21T11:13:12;10.50;99.90
29731;DHT22;16639;51.488;0.152;2023-11-21T11:15:42;11.10;99.90
29731;DHT22;16639;51.488;0.152;2023-11-21T11:18:11;11.10;99.90
29731;DHT22;16639;51.488;0.152;2023-11-21T11:20:43;11.20;99.90
29731;DHT22;16639;51.488;0.152;2023-11-21T11:27:40;11.10;99.90
29731;DHT22;16639;51.488;0.152;2023-11-21T11:36:13;11.20;99.90
29731;DHT22;16639;51.488;0.152;2023-11-21T11:38:46;11.20;99.90
29731;DHT22;16639;51.488;0.152;2023-11-21T11:41:27;11.30;99.90
29731;DHT22;16639;51.488;0.152;2023-11-21T11:43:56;11.30;99.90
29731;DHT22;16639;51.488;0.152;2023-11-21T11:46:44;11.40;99.90
29731;DHT22;16639;51.488;0.152;2023-11-21T11:49:29;11.40;99.90
29731;DHT22;16639;51.488;0.152;2023-11-21T11:55:03;11.50;99.90
29731;DHT22;16639;51.488;0.152;2023-11-21T11:57:34;11.50;99.90
29731;DHT22;16639;51.488;0.152;2023-11-21T12:02:52;11.50;99.90
29731;DHT22;16639;51.488;0.152;2023-11-21T12:05:22;11.60;99.90
29731;DHT22;16639;51.488;0.152;2023-11-21T12:08:02;11.60;99.90
29731;DHT22;16639;51.488;0.152;2023-11-21T12:10:35;12.30;99.90
29731;DHT22;16639;51.488;0.152;2023-11-21T12:13:12;11.70;99.90
29731;DHT22;16639;51.488;0.152;2023-11-21T12:15:41;11.70;99.90
29731;DHT22;16639;51.488;0.152;2023-11-21T12:18:09;11.70;99.90
29731;DHT22;16639;51.488;0.152;2023-11-21T12:20:37;11.80;99.90
29731;DHT22;16639;51.488;0.152;2023-11-21T12:23:10;11.70;99.90
29731;DHT22;16639;51.488;0.152;2023-11-21T12:25:40;11.90;99.90
29731;DHT22;16639;51.488;0.152;2023-11-21T12:28:10;12.00;99.90
29731;DHT22;16639;51.488;0.152;2023-11-21T12:30:39;12.00;99.90
29731;DHT22;16639;51.488;0.152;2023-11-21T12:33:07;11.90;99.90
29731;DHT22;16639;51.488;0.152;2023-11-21T12:35:37;11.70;99.90
29731;DHT22;16639;51.488;0.152;2023-11-21T12:38:05;12.00;99.90
29731;DHT22;16639;51.488;0.152;2023-11-21T12:40:33;12.00;99.90
29731;DHT22;16639;51.488;0.152;2023-11-21T12:43:01;12.00;99.90
29731;DHT22;16639;51.488;0.152;2023-11-21T12:45:29;12.10;99.90
29731;DHT22;16639;51.488;0.152;2023-11-21T12:48:03;12.00;99.90
29731;DHT22;16639;51.488;0.152;2023-11-21T12:50:36;12.00;99.90
29731;DHT22;16639;51.488;0.152;2023-11-21T12:53:12;12.10;99.90
29731;DHT22;16639;51.488;0.152;2023-11-21T12:55:40;12.10;99.90
29731;DHT22;16639;51.488;0.152;2023-11-21T12:58:10;12.10;99.90
29731;DHT22;16639;51.488;0.152;2023-11-21T13:00:42;12.20;99.90
29731;DHT22;16639;51.488;0.152;2023-11-21T13:03:11;12.30;99.90
29731;DHT22;16639;51.488;0.152;2023-11-21T13:05:48;12.20;99.90
29731;DHT22;16639;51.488;0.152;2023-11-21T13:08:21;12.20;99.90
29731;DHT22;16639;51.488;0.152;2023-11-21T13:10:53;12.30;99.90
29731;DHT22;16639;51.488;0.152;2023-11-21T13:13:28;12.20;99.90
29731;DHT22;16639;51.488;0.152;2023-11-21T13:16:00;12.20;99.90
29731;DHT22;16639;51.488;0.152;2023-11-21T13:18:31;11.60;99.90
29731;DHT22;16639;51.488;0.152;2023-11-21T13:21:01;12.10;99.90
29731;DHT22;16639;51.488;0.152;2023-11-21T13:23:35;12.10;99.90
29731;DHT22;16639;51.488;0.152;2023-11-21T13:26:04;12.00;99.90
29731;DHT22;16639;51.488;0.152;2023-11-21T13:28:35;11.90;99.90
29731;DHT22;16639;51.488;0.152;2023-11-21T13:31:06;11.90;99.90
29731;DHT22;16639;51.488;0.152;2023-11-21T13:33:39;11.80;99.90
29731;DHT22;16639;51.488;0.152;2023-11-21T13:36:09;11.80;99.90
29731;DHT22;16639;51.488;0.152;2023-11-21T13:38:38;11.80;99.90
29731;DHT22;16639;51.488;0.152;2023-11-21T13:41:10;11.70;99.90
29731;DHT22;16639;51.488;0.152;2023-11-21T13:43:41;11.80;99.90
29731;DHT22;16639;51.488;0.152;2023-11-21T13:46:13;11.70;99.90
29731;DHT22;16639;51.488;0.152;2023-11-21T13:49:17;11.70;99.90
29731;DHT22;16639;51.488;0.152;2023-11-21T13:52:30;11.80;99.90
29731;DHT22;16639;51.488;0.152;2023-11-21T13:55:00;11.70;99.90
29731;DHT22;16639;51.488;0.152;2023-11-21T13:57:33;11.60;99.90
29731;DHT22;16639;51.488;0.152;2023-11-21T14:00:01;11.50;99.90
29731;DHT22;16639;51.488;0.152;2023-11-21T14:02:29;11.60;99.90
29731;DHT22;16639;51.488;0.152;2023-11-21T14:05:02;11.60;99.90
29731;DHT22;16639;51.488;0.152;2023-11-21T14:07:49;11.50;99.90
29731;DHT22;16639;51.488;0.152;2023-11-21T14:10:16;11.50;99.90
29731;DHT22;16639;51.488;0.152;2023-11-21T14:12:50;11.50;99.90
29731;DHT22;16639;51.488;0.152;2023-11-21T14:15:17;11.40;99.90
29731;DHT22;16639;51.488;0.152;2023-11-21T14:17:46;11.30;99.90
29731;DHT22;16639;51.488;0.152;2023-11-21T14:20:28;11.00;99.90
29731;DHT22;16639;51.488;0.152;2023-11-21T14:23:07;11.20;99.90
29731;DHT22;16639;51.488;0.152;2023-11-21T14:25:35;11.20;99.90
29731;DHT22;16639;51.488;0.152;2023-11-21T14:28:08;11.10;99.90
29731;DHT22;16639;51.488;0.152;2023-11-21T14:30:38;11.20;99.90
29731;DHT22;16639;51.488;0.152;2023-11-21T14:33:07;11.20;99.90
29731;DHT22;16639;51.488;0.152;2023-11-21T14:35:35;11.20;99.90
29731;DHT22;16639;51.488;0.152;2023-11-21T14:38:03;11.20;99.90
29731;DHT22;16639;51.488;0.152;2023-11-21T14:40:32;11.20;99.90
29731;DHT22;16639;51.488;0.152;2023-11-21T14:43:03;11.20;99.90
29731;DHT22;16639;51.488;0.152;2023-11-21T14:45:34;11.20;99.90
29731;DHT22;16639;51.488;0.152;2023-11-21T14:48:01;11.20;99.90
29731;DHT22;16639;51.488;0.152;2023-11-21T14:50:35;11.20;99.90
29731;DHT22;16639;51.488;0.152;2023-11-21T14:53:16;11.30;99.90
29731;DHT22;16639;51.488;0.152;2023-11-21T14:56:06;11.30;99.90
29731;DHT22;16639;51.488;0.152;2023-11-21T14:58:40;11.30;99.90
29731;DHT22;16639;51.488;0.152;2023-11-21T15:01:07;11.30;99.90
29731;DHT22;16639;51.488;0.152;2023-11-21T15:03:38;11.30;99.90
29731;DHT22;16639;51.488;0.152;2023-11-21T15:06:42;11.30;99.90
29731;DHT22;16639;51.488;0.152;2023-11-21T15:14:12;11.00;99.90
29731;DHT22;16639;51.488;0.152;2023-11-21T15:17:22;11.10;99.90
29731;DHT22;16639;51.488;0.152;2023-11-21T15:23:54;10.90;99.90
29731;DHT22;16639;51.488;0.152;2023-11-21T15:26:22;10.90;99.90
29731;DHT22;16639;51.488;0.152;2023-11-21T15:28:55;10.90;99.90
29731;DHT22;16639;51.488;0.152;2023-11-21T15:31:25;10.80;99.90
29731;DHT22;16639;51.488;0.152;2023-11-21T15:33:52;10.90;99.90
29731;DHT22;16639;51.488;0.152;2023-11-21T15:36:21;10.90;99.90
29731;DHT22;16639;51.488;0.152;2023-11-21T15:38:48;10.90;99.90
29731;DHT22;16639;51.488;0.152;2023-11-21T15:41:15;10.90;99.90
29731;DHT22;16639;51.488;0.152;2023-11-21T15:43:43;10.90;99.90
29731;DHT22;16639;51.488;0.152;2023-11-21T15:46:11;10.90;99.90
29731;DHT22;16639;51.488;0.152;2023-11-21T15:48:39;10.90;99.90
29731;DHT22;16639;51.488;0.152;2023-11-21T15:51:11;10.90;99.90
29731;DHT22;16639;51.488;0.152;2023-11-21T15:53:39;10.90;99.90
29731;DHT22;16639;51.488;0.152;2023-11-21T15:56:07;10.80;99.90
29731;DHT22;16639;51.488;0.152;2023-11-21T15:58:41;10.80;99.90
29731;DHT22;16639;51.488;0.152;2023-11-21T16:01:14;10.80;99.90
29731;DHT22;16639;51.488;0.152;2023-11-21T16:03:42;10.80;99.90
29731;DHT22;16639;51.488;0.152;2023-11-21T16:06:13;10.80;99.90
29731;DHT22;16639;51.488;0.152;2023-11-21T16:08:42;10.90;99.90
29731;DHT22;16639;51.488;0.152;2023-11-21T16:11:10;10.80;99.90
29731;DHT22;16639;51.488;0.152;2023-11-21T16:13:38;10.90;99.90
29731;DHT22;16639;51.488;0.152;2023-11-21T16:16:06;10.90;99.90
29731;DHT22;16639;51.488;0.152;2023-11-21T16:18:34;10.90;99.90
29731;DHT22;16639;51.488;0.152;2023-11-21T16:21:01;10.90;99.90
29731;DHT22;16639;51.488;0.152;2023-11-21T16:23:29;10.90;99.90
29731;DHT22;16639;51.488;0.152;2023-11-21T16:25:56;10.90;99.90
29731;DHT22;16639;51.488;0.152;2023-11-21T16:28:24;10.90;99.90
29731;DHT22;16639;51.488;0.152;2023-11-21T16:30:52;10.80;99.90
29731;DHT22;16639;51.488;0.152;2023-11-21T16:33:20;10.80;99.90